createdAt,value
2022-11-10T00:01:11.148Z,11.06
2022-11-10T00:03:42.490Z,10.73
2022-11-10T00:06:11.853Z,10.77
2022-11-10T00:08:40.038Z,10.87
2022-11-10T00:11:09.208Z,10.88
2022-11-10T00:13:59.851Z,10.91
2022-11-10T00:16:46.696Z,10.92
2022-11-10T00:19:14.838Z,11.21
2022-11-10T00:21:42.900Z,11.12
2022-11-10T00:24:10.910Z,11.27
2022-11-10T00:26:38.789Z,11.30
2022-11-10T00:29:06.667Z,11.02
2022-11-10T00:31:37.993Z,11.18
2022-11-10T00:34:06.371Z,11.37
2022-11-10T00:36:35.655Z,11.39
2022-11-10T00:39:03.775Z,11.37
2022-11-10T00:41:35.918Z,11.26
2022-11-10T00:44:03.834Z,11.12
2022-11-10T00:46:31.752Z,11.24
2022-11-10T00:49:00.994Z,11.09
2022-11-10T00:51:30.501Z,11.24
2022-11-10T00:53:58.505Z,11.07
2022-11-10T00:56:26.827Z,11.28
2022-11-10T00:58:54.728Z,11.32
2022-11-10T01:01:25.523Z,11.28
2022-11-10T01:03:54.331Z,11.24
2022-11-10T01:06:23.733Z,11.27
2022-11-10T01:08:51.837Z,11.22
2022-11-10T01:11:22.118Z,11.27
2022-11-10T01:13:53.903Z,11.25
2022-11-10T01:16:23.812Z,11.15
2022-11-10T01:18:53.101Z,11.27
2022-11-10T01:21:23.305Z,11.33
2022-11-10T01:24:22.859Z,11.19
2022-11-10T01:26:54.321Z,11.33
2022-11-10T01:29:22.868Z,11.35
2022-11-10T01:31:50.706Z,11.15
2022-11-10T01:34:18.707Z,11.27
2022-11-10T01:36:48.003Z,11.28
2022-11-10T01:39:15.828Z,11.16
2022-11-10T01:41:43.938Z,11.37
2022-11-10T01:44:14.633Z,10.99
2022-11-10T01:46:42.489Z,11.19
2022-11-10T01:49:11.411Z,11.17
2022-11-10T01:51:43.210Z,11.15
2022-11-10T01:54:16.574Z,11.05
2022-11-10T01:56:49.130Z,11.17
2022-11-10T01:59:21.234Z,10.92
2022-11-10T02:01:51.984Z,11.09
2022-11-10T02:04:22.492Z,11.03
2022-11-10T02:06:51.798Z,10.95
2022-11-10T02:09:21.406Z,11.00
2022-11-10T02:11:55.055Z,10.99
2022-11-10T02:14:23.222Z,10.71
2022-11-10T02:16:51.263Z,10.75
2022-11-10T02:19:22.679Z,10.79
2022-11-10T02:21:51.910Z,11.00
2022-11-10T02:24:20.180Z,10.81
2022-11-10T02:26:51.729Z,10.76
2022-11-10T02:29:19.873Z,10.78
2022-11-10T02:31:47.764Z,10.79
2022-11-10T02:34:15.669Z,10.88
2022-11-10T02:36:43.527Z,10.75
2022-11-10T02:39:12.872Z,10.83
2022-11-10T02:41:41.072Z,10.81
2022-11-10T02:44:09.393Z,10.69
2022-11-10T02:46:37.493Z,10.80
2022-11-10T02:49:05.641Z,10.75
2022-11-10T02:51:33.458Z,10.76
2022-11-10T02:54:01.744Z,10.73
2022-11-10T02:56:30.918Z,10.71
2022-11-10T02:58:59.461Z,10.70
2022-11-10T03:01:27.390Z,10.59
2022-11-10T03:03:55.981Z,10.68
2022-11-10T03:06:25.598Z,10.43
2022-11-10T03:09:27.150Z,10.71
2022-11-10T03:12:00.574Z,10.76
2022-11-10T03:14:31.053Z,10.75
2022-11-10T03:17:03.680Z,10.35
2022-11-10T03:19:33.019Z,10.48
2022-11-10T03:22:02.891Z,10.74
2022-11-10T03:24:32.481Z,10.69
2022-11-10T03:27:06.037Z,10.72
2022-11-10T03:29:35.811Z,10.35
2022-11-10T03:32:08.274Z,10.74
2022-11-10T03:34:37.748Z,10.68
2022-11-10T03:37:05.724Z,10.40
2022-11-10T03:39:33.885Z,10.48
2022-11-10T03:42:01.832Z,10.54
2022-11-10T03:44:32.256Z,10.55
2022-11-10T03:47:03.346Z,10.49
2022-11-10T03:49:35.941Z,10.53
2022-11-10T03:52:06.024Z,10.53
2022-11-10T03:54:33.921Z,10.48
2022-11-10T03:57:01.816Z,10.49
2022-11-10T03:59:31.294Z,10.54
2022-11-10T04:01:59.286Z,10.62
2022-11-10T04:04:44.747Z,10.49
2022-11-10T04:07:31.466Z,10.37
2022-11-10T04:09:59.405Z,10.47
2022-11-10T04:12:44.581Z,10.46
2022-11-10T04:15:32.133Z,10.42
2022-11-10T04:48:05.592Z,10.34
2022-11-10T04:50:35.537Z,10.34
2022-11-10T04:53:03.348Z,10.29
2022-11-10T04:55:31.164Z,10.37
2022-11-10T04:57:59.083Z,10.35
2022-11-10T05:00:27.220Z,10.29
2022-11-10T05:02:55.137Z,10.01
2022-11-10T05:05:22.968Z,10.05
2022-11-10T05:07:52.062Z,10.23
2022-11-10T05:10:20.352Z,10.12
2022-11-10T05:12:48.103Z,10.28
2022-11-10T05:15:15.954Z,10.14
2022-11-10T05:17:43.714Z,10.12
2022-11-10T05:20:11.581Z,9.97
2022-11-10T05:22:39.330Z,10.12
2022-11-10T05:25:09.426Z,10.15
2022-11-10T05:27:37.244Z,9.81
2022-11-10T05:30:05.849Z,10.11
2022-11-10T05:32:33.732Z,10.07
2022-11-10T05:35:01.550Z,10.03
2022-11-10T05:37:29.345Z,10.09
2022-11-10T05:39:57.180Z,10.12
2022-11-10T05:42:27.523Z,9.96
2022-11-10T05:44:55.376Z,9.90
2022-11-10T05:47:23.320Z,10.01
2022-11-10T05:49:51.162Z,9.80
2022-11-10T05:52:19.083Z,9.97
2022-11-10T05:54:47.004Z,9.86
2022-11-10T05:57:14.825Z,9.97
2022-11-10T05:59:44.143Z,9.83
2022-11-10T06:02:12.197Z,9.90
2022-11-10T06:04:40.036Z,9.86
2022-11-10T06:07:09.019Z,9.89
2022-11-10T06:09:37.956Z,9.88
2022-11-10T06:12:06.166Z,9.87
2022-11-10T06:14:33.958Z,9.75
2022-11-10T06:17:03.278Z,9.90
2022-11-10T06:19:31.194Z,9.73
2022-11-10T06:22:03.598Z,9.78
2022-11-10T06:24:34.358Z,9.56
2022-11-10T06:27:02.324Z,9.64
2022-11-10T06:29:30.232Z,9.69
2022-11-10T06:31:58.904Z,9.78
2022-11-10T06:34:29.029Z,9.72
2022-11-10T06:36:57.029Z,9.59
2022-11-10T06:39:24.917Z,9.71
2022-11-10T06:41:52.821Z,9.73
2022-11-10T06:44:40.490Z,9.65
2022-11-10T06:47:10.332Z,9.46
2022-11-10T06:49:39.498Z,9.69
2022-11-10T06:52:07.373Z,9.81
2022-11-10T06:54:35.271Z,9.67
2022-11-10T06:57:03.070Z,9.86
2022-11-10T06:59:30.887Z,9.77
2022-11-10T07:01:58.785Z,9.96
2022-11-10T07:04:26.575Z,9.81
2022-11-10T07:06:55.969Z,9.74
2022-11-10T07:09:23.805Z,9.98
2022-11-10T07:11:51.679Z,9.75
2022-11-10T07:14:19.682Z,9.98
2022-11-10T07:16:55.998Z,9.97
2022-11-10T07:19:23.815Z,10.11
2022-11-10T07:21:51.855Z,10.25
2022-11-10T07:24:21.050Z,10.20
2022-11-10T07:26:49.014Z,10.35
2022-11-10T07:29:16.982Z,10.16
2022-11-10T07:31:44.819Z,10.53
2022-11-10T07:34:12.753Z,10.33
2022-11-10T07:36:54.500Z,10.27
2022-11-10T07:39:24.125Z,10.51
2022-11-10T07:41:52.782Z,10.22
2022-11-10T07:44:22.430Z,10.57
2022-11-10T07:46:50.398Z,10.51
2022-11-10T07:49:18.267Z,10.58
2022-11-10T07:51:46.128Z,10.55
2022-11-10T07:54:14.060Z,10.69
2022-11-10T07:56:43.807Z,10.70
2022-11-10T07:59:11.645Z,10.83
2022-11-10T08:01:39.543Z,10.70
2022-11-10T08:04:07.420Z,11.05
2022-11-10T08:06:36.731Z,10.76
2022-11-10T08:09:05.065Z,10.83
2022-11-10T08:11:32.906Z,11.01
2022-11-10T08:14:02.112Z,10.90
2022-11-10T08:16:29.983Z,10.76
2022-11-10T08:18:57.952Z,11.07
2022-11-10T08:21:26.043Z,10.94
2022-11-10T08:23:54.139Z,11.20
2022-11-10T08:26:22.191Z,11.32
2022-11-10T08:28:50.075Z,11.57
2022-11-10T08:31:19.253Z,11.44
2022-11-10T08:33:47.321Z,11.48
2022-11-10T08:36:15.296Z,11.51
2022-11-10T08:38:43.322Z,11.47
2022-11-10T08:41:11.151Z,11.43
2022-11-10T08:43:39.174Z,11.55
2022-11-10T08:46:09.631Z,11.62
2022-11-10T08:48:39.169Z,11.75
2022-11-10T08:51:07.103Z,12.02
2022-11-10T08:53:34.987Z,11.83
2022-11-10T08:56:02.994Z,11.80
2022-11-10T08:58:30.967Z,12.09
2022-11-10T09:00:58.833Z,12.21
2022-11-10T09:03:27.252Z,11.97
2022-11-10T09:05:58.985Z,12.17
2022-11-10T09:08:27.661Z,12.07
2022-11-10T09:10:55.753Z,12.01
2022-11-10T09:13:28.995Z,12.00
2022-11-10T09:15:57.886Z,12.10
2022-11-10T09:18:25.761Z,12.08
2022-11-10T09:20:53.547Z,12.15
2022-11-10T09:23:24.828Z,12.40
2022-11-10T09:25:54.708Z,12.40
2022-11-10T09:28:23.908Z,12.32
2022-11-10T09:30:54.129Z,12.31
2022-11-10T09:33:22.562Z,12.48
2022-11-10T09:35:50.943Z,12.53
2022-11-10T09:38:18.851Z,12.75
2022-11-10T09:41:00.884Z,12.50
2022-11-10T09:43:34.403Z,12.58
2022-11-10T09:46:10.119Z,12.98
2022-11-10T09:48:42.991Z,12.82
2022-11-10T09:51:16.588Z,12.85
2022-11-10T09:53:51.504Z,12.75
2022-11-10T09:56:27.183Z,12.66
2022-11-10T09:58:55.311Z,12.80
2022-11-10T10:01:31.646Z,12.90
2022-11-10T10:04:08.992Z,13.14
2022-11-10T10:07:09.713Z,13.09
2022-11-10T10:09:42.315Z,13.05
2022-11-10T10:12:24.665Z,13.52
2022-11-10T10:15:10.782Z,13.69
2022-11-10T10:17:46.749Z,13.49
2022-11-10T10:20:24.689Z,13.54
2022-11-10T10:23:05.145Z,13.82
2022-11-10T10:25:36.113Z,13.76
2022-11-10T10:28:14.255Z,13.64
2022-11-10T10:30:46.326Z,13.75
2022-11-10T10:33:17.914Z,13.84
2022-11-10T10:35:47.869Z,13.76
2022-11-10T10:38:23.488Z,13.83
2022-11-10T10:40:53.213Z,13.84
2022-11-10T10:43:22.480Z,13.71
2022-11-10T10:46:06.584Z,13.95
2022-11-10T10:48:34.959Z,14.56
2022-11-10T10:51:02.843Z,14.46
2022-11-10T10:53:30.827Z,14.40
2022-11-10T10:56:02.374Z,14.59
2022-11-10T10:58:34.202Z,14.49
2022-11-10T11:01:06.948Z,14.58
2022-11-10T11:03:43.399Z,14.95
2022-11-10T11:06:21.157Z,15.12
2022-11-10T11:08:59.667Z,15.01
2022-11-10T11:11:31.402Z,14.96
2022-11-10T11:14:22.904Z,14.88
2022-11-10T11:16:53.010Z,14.71
2022-11-10T11:19:23.229Z,14.92
2022-11-10T11:22:04.977Z,14.30
2022-11-10T11:24:40.618Z,14.54
2022-11-10T11:27:15.536Z,14.24
2022-11-10T11:29:56.666Z,14.75
2022-11-10T11:32:49.410Z,14.08
2022-11-10T11:35:25.545Z,14.13
2022-11-10T11:38:06.750Z,14.15
2022-11-10T11:40:49.470Z,14.25
2022-11-10T11:43:40.602Z,14.09
2022-11-10T11:46:17.782Z,14.24
2022-11-10T11:49:02.500Z,14.45
2022-11-10T11:51:39.912Z,14.51
2022-11-10T11:54:29.389Z,14.61
2022-11-10T11:57:09.879Z,14.92
2022-11-10T11:59:58.152Z,15.43
2022-11-10T12:02:53.011Z,15.48
2022-11-10T12:05:36.596Z,15.54
2022-11-10T12:08:15.921Z,15.08
2022-11-10T12:10:55.899Z,16.05
2022-11-10T12:13:37.708Z,15.77
2022-11-10T12:16:12.975Z,15.69
2022-11-10T12:18:49.839Z,15.73
2022-11-10T12:21:26.697Z,15.37
2022-11-10T12:24:12.702Z,15.87
2022-11-10T12:26:48.389Z,15.49
2022-11-10T12:29:24.994Z,15.70
2022-11-10T12:31:56.942Z,15.07
2022-11-10T12:34:37.589Z,15.56
2022-11-10T12:37:09.092Z,15.98
2022-11-10T12:39:50.429Z,16.02
2022-11-10T12:42:22.920Z,15.94
2022-11-10T12:45:00.519Z,16.07
2022-11-10T12:47:32.866Z,16.17
2022-11-10T12:50:27.719Z,16.21
2022-11-10T12:52:59.201Z,16.30
2022-11-10T12:55:35.597Z,16.10
2022-11-10T12:58:05.400Z,15.89
2022-11-10T13:00:40.030Z,16.25
2022-11-10T13:03:15.959Z,15.87
2022-11-10T13:05:46.222Z,15.57
2022-11-10T13:08:27.816Z,15.53
2022-11-10T13:10:58.469Z,15.63
2022-11-10T13:13:26.506Z,15.58
2022-11-10T13:15:57.075Z,15.73
2022-11-10T13:18:42.192Z,15.75
2022-11-10T13:21:11.426Z,15.60
2022-11-10T13:24:14.583Z,15.72
2022-11-10T13:26:52.568Z,15.72
2022-11-10T13:29:29.462Z,15.79
2022-11-10T13:31:58.961Z,15.68
2022-11-10T13:34:29.816Z,15.69
2022-11-10T13:37:00.252Z,15.91
2022-11-10T13:39:31.893Z,15.55
2022-11-10T13:42:17.720Z,15.97
2022-11-10T13:44:47.642Z,16.06
2022-11-10T13:47:53.909Z,15.79
2022-11-10T13:50:33.638Z,15.68
2022-11-10T13:53:17.016Z,15.93
2022-11-10T13:56:01.679Z,15.52
2022-11-10T13:58:32.537Z,15.42
2022-11-10T14:01:28.990Z,15.56
2022-11-10T14:04:00.389Z,15.65
2022-11-10T14:06:40.229Z,15.60
2022-11-10T14:09:19.242Z,15.40
2022-11-10T14:11:52.109Z,15.65
2022-11-10T14:14:24.559Z,15.67
2022-11-10T14:16:54.129Z,15.69
2022-11-10T14:19:32.420Z,15.89
2022-11-10T14:22:05.364Z,16.04
2022-11-10T14:24:39.384Z,15.87
2022-11-10T14:27:14.115Z,15.65
2022-11-10T14:29:43.008Z,15.70
2022-11-10T14:32:18.855Z,15.65
2022-11-10T14:34:49.598Z,15.51
2022-11-10T14:37:24.215Z,15.63
2022-11-10T14:39:56.549Z,15.75
2022-11-10T14:42:26.935Z,15.46
2022-11-10T14:45:17.333Z,15.91
2022-11-10T14:47:53.079Z,15.68
2022-11-10T14:50:24.781Z,15.79
2022-11-10T14:52:56.433Z,15.65
2022-11-10T14:55:29.576Z,15.56
2022-11-10T14:58:04.039Z,15.84
2022-11-10T15:00:37.349Z,15.67
2022-11-10T15:03:07.507Z,15.53
2022-11-10T15:05:35.979Z,15.63
2022-11-10T15:08:05.386Z,15.47
2022-11-10T15:10:48.434Z,15.19
2022-11-10T15:13:21.223Z,15.31
2022-11-10T15:15:49.162Z,15.10
2022-11-10T15:18:26.928Z,14.99
2022-11-10T15:21:02.321Z,14.79
2022-11-10T15:23:33.986Z,14.87
2022-11-10T15:26:03.533Z,14.87
2022-11-10T15:28:33.765Z,14.75
2022-11-10T15:31:03.606Z,14.65
2022-11-10T15:33:34.975Z,14.57
2022-11-10T15:36:18.007Z,14.42
2022-11-10T15:39:01.585Z,14.32
2022-11-10T15:41:33.826Z,14.50
2022-11-10T15:44:29.989Z,14.44
2022-11-10T15:47:00.134Z,14.34
2022-11-10T15:49:31.988Z,14.20
2022-11-10T15:52:04.045Z,14.00
2022-11-10T15:54:38.636Z,14.01
2022-11-10T15:57:12.671Z,14.04
2022-11-10T15:59:40.680Z,13.89
2022-11-10T16:02:21.200Z,13.93
2022-11-10T16:04:53.406Z,13.87
2022-11-10T16:07:26.042Z,13.81
2022-11-10T16:09:54.333Z,13.68
2022-11-10T16:12:24.377Z,13.76
2022-11-10T16:14:54.548Z,13.61
2022-11-10T16:17:23.555Z,13.65
2022-11-10T16:19:51.450Z,13.59
2022-11-10T16:22:20.785Z,13.56
2022-11-10T16:24:57.915Z,13.51
2022-11-10T16:27:33.023Z,13.54
2022-11-10T16:30:01.497Z,13.40
2022-11-10T16:32:29.444Z,13.43
2022-11-10T16:34:57.346Z,13.43
2022-11-10T16:37:25.280Z,13.28
2022-11-10T16:39:53.142Z,13.39
2022-11-10T16:42:20.983Z,13.41
2022-11-10T16:44:50.262Z,13.40
2022-11-10T16:47:20.240Z,13.32
2022-11-10T16:49:49.203Z,13.24
2022-11-10T16:52:17.850Z,13.30
2022-11-10T16:54:45.986Z,13.23
2022-11-10T16:57:15.379Z,13.15
2022-11-10T16:59:45.612Z,13.23
2022-11-10T17:02:31.502Z,13.17
2022-11-10T17:04:59.593Z,13.21
2022-11-10T17:07:29.325Z,13.07
2022-11-10T17:09:57.853Z,13.14
2022-11-10T17:12:25.829Z,13.02
2022-11-10T17:14:53.760Z,12.96
2022-11-10T17:17:21.936Z,13.02
2022-11-10T17:19:52.266Z,13.10
2022-11-10T17:22:22.804Z,12.94
2022-11-10T17:24:57.345Z,13.04
2022-11-10T17:27:26.267Z,13.08
2022-11-10T17:29:54.257Z,13.03
2022-11-10T17:32:43.138Z,13.13
2022-11-10T17:35:11.930Z,13.17
2022-11-10T17:37:40.957Z,12.95
2022-11-10T17:40:19.232Z,13.07
2022-11-10T17:42:47.722Z,12.91
2022-11-10T17:45:23.456Z,12.96
2022-11-10T17:47:51.889Z,12.98
2022-11-10T17:50:23.632Z,12.83
2022-11-10T17:52:51.626Z,12.85
2022-11-10T17:55:27.339Z,12.81
2022-11-10T17:57:58.113Z,12.74
2022-11-10T18:00:28.339Z,12.81
2022-11-10T18:02:56.694Z,12.78
2022-11-10T18:05:33.611Z,12.67
2022-11-10T18:08:02.068Z,12.64
2022-11-10T18:10:30.123Z,12.59
2022-11-10T18:12:58.970Z,12.53
2022-11-10T18:15:26.877Z,12.46
2022-11-10T18:18:00.908Z,12.48
2022-11-10T18:20:30.846Z,12.27
2022-11-10T18:22:58.796Z,12.52
2022-11-10T18:25:26.788Z,12.43
2022-11-10T18:27:54.798Z,12.28
2022-11-10T18:30:23.020Z,12.17
2022-11-10T18:32:51.152Z,12.05
2022-11-10T18:35:20.661Z,11.95
2022-11-10T18:37:49.990Z,12.22
2022-11-10T18:40:17.941Z,12.07
2022-11-10T18:42:45.921Z,12.08
2022-11-10T18:45:14.175Z,12.01
2022-11-10T18:47:42.222Z,11.91
2022-11-10T18:50:11.113Z,11.75
2022-11-10T18:52:38.955Z,11.91
2022-11-10T18:55:10.230Z,11.86
2022-11-10T18:57:38.328Z,11.79
2022-11-10T19:00:07.874Z,11.66
2022-11-10T19:02:36.574Z,11.70
2022-11-10T19:05:05.189Z,11.72
2022-11-10T19:07:33.130Z,11.59
2022-11-10T19:10:01.139Z,11.50
2022-11-10T19:12:32.000Z,11.50
2022-11-10T19:15:00.688Z,11.65
2022-11-10T19:17:28.722Z,11.54
2022-11-10T19:19:57.064Z,11.54
2022-11-10T19:22:25.154Z,11.40
2022-11-10T19:25:07.747Z,11.32
2022-11-10T19:27:37.866Z,11.40
2022-11-10T19:30:06.665Z,11.22
2022-11-10T19:32:34.735Z,11.32
2022-11-10T19:35:03.805Z,11.06
2022-11-10T19:37:35.006Z,11.23
2022-11-10T19:40:04.039Z,10.98
2022-11-10T19:42:33.027Z,11.22
2022-11-10T19:45:03.556Z,10.94
2022-11-10T19:47:32.214Z,10.89
2022-11-10T19:50:00.240Z,11.05
2022-11-10T19:52:28.286Z,10.87
2022-11-10T19:54:56.157Z,10.86
2022-11-10T19:57:24.360Z,10.87
2022-11-10T19:59:52.183Z,10.85
2022-11-10T20:02:21.687Z,10.82
2022-11-10T20:05:07.632Z,10.83
2022-11-10T20:07:53.084Z,10.93
2022-11-10T20:10:20.970Z,10.82
2022-11-10T20:12:49.162Z,10.82
2022-11-10T20:15:17.616Z,10.86
2022-11-10T20:17:46.917Z,10.70
2022-11-10T20:20:15.285Z,10.88
2022-11-10T20:22:43.376Z,10.86
2022-11-10T20:25:11.837Z,10.79
2022-11-10T20:27:39.933Z,10.64
2022-11-10T20:30:09.248Z,10.72
2022-11-10T20:32:37.791Z,10.82
2022-11-10T20:35:08.315Z,10.73
2022-11-10T20:37:36.307Z,10.61
2022-11-10T20:40:10.412Z,10.66
2022-11-10T20:42:52.323Z,10.67
2022-11-10T20:45:20.290Z,10.66
2022-11-10T20:47:48.163Z,10.54
2022-11-10T20:50:23.055Z,10.51
2022-11-10T20:52:52.373Z,10.46
2022-11-10T20:55:43.801Z,10.32
2022-11-10T20:58:08.461Z,10.41
2022-11-10T21:00:36.480Z,10.34
2022-11-10T21:03:04.545Z,10.26
2022-11-10T21:05:33.930Z,10.37
2022-11-10T21:08:01.932Z,10.33
2022-11-10T21:10:30.038Z,10.35
2022-11-10T21:12:58.238Z,10.27
2022-11-10T21:15:26.421Z,10.13
2022-11-10T21:17:54.383Z,10.20
2022-11-10T21:20:22.358Z,10.04
2022-11-10T21:22:51.656Z,9.93
2022-11-10T21:25:20.662Z,9.99
2022-11-10T21:27:48.881Z,9.99
2022-11-10T21:30:22.989Z,9.97
2022-11-10T21:32:50.932Z,10.03
2022-11-10T21:35:20.163Z,9.95
2022-11-10T21:37:48.074Z,9.89
2022-11-10T21:40:17.662Z,9.98
2022-11-10T21:42:45.662Z,9.94
2022-11-10T21:45:13.689Z,9.89
2022-11-10T21:47:41.592Z,9.86
2022-11-10T21:50:09.668Z,9.91
2022-11-10T21:52:37.798Z,9.70
2022-11-10T21:55:06.823Z,9.79
2022-11-10T21:57:36.437Z,9.87
2022-11-10T22:00:05.301Z,9.76
2022-11-10T22:02:33.118Z,9.71
2022-11-10T22:05:00.940Z,9.81
2022-11-10T22:07:29.003Z,9.86
2022-11-10T22:10:14.715Z,9.75
2022-11-10T22:13:01.701Z,9.87
2022-11-10T22:15:46.842Z,9.72
2022-11-10T22:18:34.488Z,9.79
2022-11-10T22:21:02.950Z,9.59
2022-11-10T22:23:48.124Z,9.60
2022-11-10T22:26:16.439Z,9.58
2022-11-10T22:28:46.553Z,9.54
2022-11-10T22:31:14.532Z,9.58
2022-11-10T22:33:43.966Z,9.58
2022-11-10T22:36:14.837Z,9.55
2022-11-10T22:38:43.308Z,9.51
2022-11-10T22:41:32.269Z,9.42
2022-11-10T22:44:08.468Z,9.45
2022-11-10T22:46:38.564Z,9.47
2022-11-10T22:49:08.660Z,9.48
2022-11-10T22:51:37.807Z,9.32
2022-11-10T22:54:06.895Z,9.56
2022-11-10T22:56:36.087Z,9.47
2022-11-10T22:59:05.898Z,9.48
2022-11-10T23:01:34.317Z,9.49
2022-11-10T23:04:02.928Z,9.36
2022-11-10T23:06:31.476Z,9.35
2022-11-10T23:09:00.481Z,9.27
2022-11-10T23:11:30.826Z,9.32
2022-11-10T23:13:59.981Z,9.17
2022-11-10T23:16:33.283Z,9.17
2022-11-10T23:19:02.347Z,9.04
2022-11-10T23:21:32.221Z,8.82
2022-11-10T23:24:02.699Z,8.65
2022-11-10T23:26:31.064Z,8.55
2022-11-10T23:28:58.937Z,8.47
2022-11-10T23:31:30.754Z,8.41
2022-11-10T23:33:58.751Z,8.53
2022-11-10T23:36:27.805Z,8.56
2022-11-10T23:38:56.434Z,8.38
2022-11-10T23:41:26.110Z,8.24
2022-11-10T23:43:54.444Z,8.32
2022-11-10T23:46:22.714Z,8.36
2022-11-10T23:48:52.441Z,8.23
2022-11-10T23:51:25.563Z,8.16
2022-11-10T23:53:55.062Z,7.99
